Wilmington, OH

5:52 AM EST on February 20, 2017 (GMT -0500)
2.2 N Wilmington | | Change Station
Active Advisory: Dense Fog Advisory

Elev 1053 ft 39.47 °N, 83.84 °W | Updated 14 minutes ago

Fog
Fog
34.4 °F
Feels Like 34 °F
N
0.0
Wind Variable Wind from SW
Gusts 0.0 mph

Today
High -- | Low -- °F
--% Chance of Precip.
Yesterday
High -- | Low -- °F
Precip. -- in
Pressure 30.24 in
Visibility 0.2 miles
Clouds
Windchill 34 °F
Dew Point 33 °F
Humidity 96%
Rainfall 0.00 in
Snow Depth Not available.
7:20 AM 6:18 PM
Waning Crescent, 35% visible
METAR KILN 200954Z AUTO 00000KT 1/4SM FG VV001 01/01 A3019 RMK AO2 SLP239 T00060006
Pressure 30.24 in
Visibility 0.2 miles
Clouds
Windchill 34 °F
Dew Point 33 °F
Humidity 96%
Rainfall 0.00 in
Snow Depth Not available.
7:20 AM 6:18 PM
Waning Crescent, 35% visible
METAR KILN 200954Z AUTO 00000KT 1/4SM FG VV001 01/01 A3019 RMK AO2 SLP239 T00060006

Get Your Daily Forecast Email!

Thanks for signing up!

Be on the lookout for a verification email in your inbox.

You'll start receiving the daily forecast at 8 AM.

×

10-Day Weather Forecast

Almanac

Astronomy

Feb. 20, 2017 Rise Set
Actual Time
Civil Twilight
Nautical Twilight
Astronomical Twilight
Moon
Length of Visible Light
Length of Day
Tomorrow will be .
, % of the Moon is Illuminated

Today's Extremes

State Highs State Lows

Community

WunderPhotos

Upload Photos

1,962,540 photos uploaded!

WunderBlog® & News

Nearby

Air Quality

  Air Quality AQ Index Pollutant
Not available.

Snow Depth

Station Depth Elevation

Earthquake Activity

City Distance Mag. Time & Date
Minimum magnitude displayed is 2.5.

Coastal Water Temperatures

Place Temperature

Stations

Nearby Weather Stations

Station Location Temp. Windchill Dew Point Humidity Wind Precip. Elev Updated Type
                   

Watches & Warnings

Dense Fog Advisory
Issued: 3:33 AM EST Feb. 20, 2017 – National Weather Service

... Dense fog advisory remains in effect until 10 am EST this
morning...

* timing... areas of dense fog can be expected overnight and into
the morning hours on Monday.

* Impacts... visibilities will be a quarter of a mile or less at
times. These poor visibilities will result in hazardous travel
conditions.

Precautionary/preparedness actions...

Motorists should use extra caution. Slow down, use low-beam
headlights, and leave plenty of distance ahead of you as objects
on and near roadways will be seen only at close range due to low
visibilities.